Terminal Aerodrome Forecast
Issued by NWS

Home | Current Version | Previous Version | Text Only | Print | Product List | Glossary On
Versions: 1 2 3 4 5 6 7 8 9 10 11 12 13 14 15 16 17
000
FTUS43 KDTX 242320
TAFPTK
TAF
KPTK 242320Z 2500/2524 07011KT 5SM -SHRA BR BKN015 OVC030
     FM250300 06009KT 3SM -SHRA BR BKN008 OVC012
     FM251000 05007KT 3SM -SHRA BR OVC004
     FM251800 02008KT 4SM -SHRA BR OVC007=

USA.gov is the U.S. government's official web portal to all federal, state and local government web resources and services.